Est de Santa Barbara, Puerto Rico
Current Conditions -  °F | °C
As of 9:56 AM on Sunday 21 Dec 2014 (Local Time) from TJSJ Reporting Station
Scattered Clouds Scattered Clouds  
Wind Chill: 83°   Ceiling: Unl
Heat Index: 86°   Visibility: 10mi
Dew Point: 69°   Wind: 17mph
Humidity: 63%   Direction: 80°E
Pressure: 30.11"   Gusts: NA
Location:  18.2551°N, 65.9776°W
Report Text: TJSJ 211356Z 08015KT 10SM SCT033 28/21 A3011 RMK AO2 SLP194 T02830206
Loading
Personal Weather Stations






























Interactive Weather Map New forecast layout! Learn more

10-Day Weather Forecast

Advertisements
Track Severe Weather on mobile